sensor_id;sensor_type;location;lat;lon;timestamp;temperature;humidity
33903;DHT22;20194;50.950;5.346;2024-02-26T00:01:32;8.10;96.80
33903;DHT22;20194;50.950;5.346;2024-02-26T00:03:59;8.00;97.20
33903;DHT22;20194;50.950;5.346;2024-02-26T00:06:25;8.00;97.50
33903;DHT22;20194;50.950;5.346;2024-02-26T00:08:51;8.00;97.40
33903;DHT22;20194;50.950;5.346;2024-02-26T00:11:16;8.00;97.40
33903;DHT22;20194;50.950;5.346;2024-02-26T00:13:42;8.00;97.10
33903;DHT22;20194;50.950;5.346;2024-02-26T00:16:08;8.00;97.10
33903;DHT22;20194;50.950;5.346;2024-02-26T00:18:34;8.00;97.30
33903;DHT22;20194;50.950;5.346;2024-02-26T00:21:00;8.00;97.50
33903;DHT22;20194;50.950;5.346;2024-02-26T00:23:26;7.90;97.50
33903;DHT22;20194;50.950;5.346;2024-02-26T00:25:53;7.90;97.80
33903;DHT22;20194;50.950;5.346;2024-02-26T00:28:18;7.90;97.80
33903;DHT22;20194;50.950;5.346;2024-02-26T00:30:45;7.90;97.90
33903;DHT22;20194;50.950;5.346;2024-02-26T00:33:12;7.90;98.10
33903;DHT22;20194;50.950;5.346;2024-02-26T00:35:38;7.80;98.20
33903;DHT22;20194;50.950;5.346;2024-02-26T00:38:04;7.80;98.10
33903;DHT22;20194;50.950;5.346;2024-02-26T00:40:30;7.70;98.50
33903;DHT22;20194;50.950;5.346;2024-02-26T00:42:55;7.70;98.60
33903;DHT22;20194;50.950;5.346;2024-02-26T00:45:22;7.80;98.50
33903;DHT22;20194;50.950;5.346;2024-02-26T00:47:47;7.80;98.30
33903;DHT22;20194;50.950;5.346;2024-02-26T00:50:14;7.80;98.50
33903;DHT22;20194;50.950;5.346;2024-02-26T00:52:40;7.70;98.50
33903;DHT22;20194;50.950;5.346;2024-02-26T00:55:06;7.60;99.00
33903;DHT22;20194;50.950;5.346;2024-02-26T00:57:32;7.50;99.50
33903;DHT22;20194;50.950;5.346;2024-02-26T00:59:58;7.50;99.70
33903;DHT22;20194;50.950;5.346;2024-02-26T01:02:25;7.50;99.80
33903;DHT22;20194;50.950;5.346;2024-02-26T01:04:50;7.50;99.80
33903;DHT22;20194;50.950;5.346;2024-02-26T01:07:16;7.50;99.70
33903;DHT22;20194;50.950;5.346;2024-02-26T01:09:42;7.60;99.60
33903;DHT22;20194;50.950;5.346;2024-02-26T01:12:08;7.50;99.90
33903;DHT22;20194;50.950;5.346;2024-02-26T01:14:34;7.50;99.90
33903;DHT22;20194;50.950;5.346;2024-02-26T01:17:00;7.50;99.90
33903;DHT22;20194;50.950;5.346;2024-02-26T01:19:25;7.40;99.90
33903;DHT22;20194;50.950;5.346;2024-02-26T01:21:51;7.50;99.90
33903;DHT22;20194;50.950;5.346;2024-02-26T01:24:17;7.40;99.90
33903;DHT22;20194;50.950;5.346;2024-02-26T01:26:42;7.40;99.90
33903;DHT22;20194;50.950;5.346;2024-02-26T01:29:08;7.40;99.90
33903;DHT22;20194;50.950;5.346;2024-02-26T01:31:34;7.40;99.90
33903;DHT22;20194;50.950;5.346;2024-02-26T01:34:01;7.40;99.90
33903;DHT22;20194;50.950;5.346;2024-02-26T01:36:27;7.40;99.90
33903;DHT22;20194;50.950;5.346;2024-02-26T01:38:52;7.30;99.90
33903;DHT22;20194;50.950;5.346;2024-02-26T01:41:19;7.40;99.90
33903;DHT22;20194;50.950;5.346;2024-02-26T01:43:44;7.40;99.90
33903;DHT22;20194;50.950;5.346;2024-02-26T01:46:12;7.50;99.90
33903;DHT22;20194;50.950;5.346;2024-02-26T01:48:42;7.40;99.90
33903;DHT22;20194;50.950;5.346;2024-02-26T01:51:10;7.30;99.90
33903;DHT22;20194;50.950;5.346;2024-02-26T01:53:38;7.30;99.90
33903;DHT22;20194;50.950;5.346;2024-02-26T01:56:04;7.20;99.90
33903;DHT22;20194;50.950;5.346;2024-02-26T01:58:30;7.20;99.90
33903;DHT22;20194;50.950;5.346;2024-02-26T02:00:57;7.30;99.90
33903;DHT22;20194;50.950;5.346;2024-02-26T02:03:23;7.30;99.90
33903;DHT22;20194;50.950;5.346;2024-02-26T02:05:49;7.30;99.90
33903;DHT22;20194;50.950;5.346;2024-02-26T02:08:15;7.30;99.90
33903;DHT22;20194;50.950;5.346;2024-02-26T02:10:42;7.30;99.90
33903;DHT22;20194;50.950;5.346;2024-02-26T02:13:08;7.30;99.90
33903;DHT22;20194;50.950;5.346;2024-02-26T02:15:33;7.30;99.90
33903;DHT22;20194;50.950;5.346;2024-02-26T02:17:59;7.40;99.90
33903;DHT22;20194;50.950;5.346;2024-02-26T02:20:31;7.30;99.90
33903;DHT22;20194;50.950;5.346;2024-02-26T02:22:58;7.30;99.90
33903;DHT22;20194;50.950;5.346;2024-02-26T02:25:24;7.20;99.90
33903;DHT22;20194;50.950;5.346;2024-02-26T02:27:50;7.10;99.90
33903;DHT22;20194;50.950;5.346;2024-02-26T02:30:17;7.20;99.90
33903;DHT22;20194;50.950;5.346;2024-02-26T02:32:43;7.30;99.90
33903;DHT22;20194;50.950;5.346;2024-02-26T02:35:09;7.30;99.90
33903;DHT22;20194;50.950;5.346;2024-02-26T02:37:35;7.20;99.90
33903;DHT22;20194;50.950;5.346;2024-02-26T02:40:02;7.20;99.90
33903;DHT22;20194;50.950;5.346;2024-02-26T02:42:28;7.10;99.90
33903;DHT22;20194;50.950;5.346;2024-02-26T02:44:54;7.10;99.90
33903;DHT22;20194;50.950;5.346;2024-02-26T02:47:19;7.10;99.90
33903;DHT22;20194;50.950;5.346;2024-02-26T02:49:45;7.00;99.90
33903;DHT22;20194;50.950;5.346;2024-02-26T02:52:11;7.00;99.90
33903;DHT22;20194;50.950;5.346;2024-02-26T02:54:36;7.00;99.90
33903;DHT22;20194;50.950;5.346;2024-02-26T02:57:05;7.00;99.90
33903;DHT22;20194;50.950;5.346;2024-02-26T02:59:31;7.00;99.90
33903;DHT22;20194;50.950;5.346;2024-02-26T03:01:57;7.10;99.90
33903;DHT22;20194;50.950;5.346;2024-02-26T03:04:23;7.00;99.90
33903;DHT22;20194;50.950;5.346;2024-02-26T03:06:49;7.00;99.90
33903;DHT22;20194;50.950;5.346;2024-02-26T03:09:15;7.00;99.90
33903;DHT22;20194;50.950;5.346;2024-02-26T03:11:40;7.00;99.90
33903;DHT22;20194;50.950;5.346;2024-02-26T03:14:07;7.00;99.90
33903;DHT22;20194;50.950;5.346;2024-02-26T03:16:33;6.90;99.90
33903;DHT22;20194;50.950;5.346;2024-02-26T03:18:59;7.00;99.90
33903;DHT22;20194;50.950;5.346;2024-02-26T03:21:25;6.90;99.90
33903;DHT22;20194;50.950;5.346;2024-02-26T03:23:51;7.00;99.90
33903;DHT22;20194;50.950;5.346;2024-02-26T03:26:16;7.00;99.90
33903;DHT22;20194;50.950;5.346;2024-02-26T03:28:42;7.00;99.90
33903;DHT22;20194;50.950;5.346;2024-02-26T03:31:08;7.00;99.90
33903;DHT22;20194;50.950;5.346;2024-02-26T03:33:34;6.90;99.90
33903;DHT22;20194;50.950;5.346;2024-02-26T03:36:00;6.90;99.90
33903;DHT22;20194;50.950;5.346;2024-02-26T03:38:25;6.90;99.90
33903;DHT22;20194;50.950;5.346;2024-02-26T03:40:52;6.90;99.90
33903;DHT22;20194;50.950;5.346;2024-02-26T03:43:17;6.90;99.90
33903;DHT22;20194;50.950;5.346;2024-02-26T03:45:43;6.90;99.90
33903;DHT22;20194;50.950;5.346;2024-02-26T03:48:09;6.90;99.90
33903;DHT22;20194;50.950;5.346;2024-02-26T03:50:34;6.90;99.90
33903;DHT22;20194;50.950;5.346;2024-02-26T03:53:01;6.90;99.90
33903;DHT22;20194;50.950;5.346;2024-02-26T03:55:27;6.90;99.90
33903;DHT22;20194;50.950;5.346;2024-02-26T03:57:52;6.90;99.90
33903;DHT22;20194;50.950;5.346;2024-02-26T04:00:19;7.00;99.90
33903;DHT22;20194;50.950;5.346;2024-02-26T04:02:44;7.00;99.90
33903;DHT22;20194;50.950;5.346;2024-02-26T04:05:12;7.00;99.90
33903;DHT22;20194;50.950;5.346;2024-02-26T04:07:39;7.00;99.90
33903;DHT22;20194;50.950;5.346;2024-02-26T04:10:12;7.00;99.90
33903;DHT22;20194;50.950;5.346;2024-02-26T04:12:41;7.00;99.90
33903;DHT22;20194;50.950;5.346;2024-02-26T04:15:10;7.00;99.90
33903;DHT22;20194;50.950;5.346;2024-02-26T04:17:37;6.90;99.90
33903;DHT22;20194;50.950;5.346;2024-02-26T04:20:03;6.90;99.90
33903;DHT22;20194;50.950;5.346;2024-02-26T04:22:32;6.90;99.90
33903;DHT22;20194;50.950;5.346;2024-02-26T04:24:57;6.90;99.90
33903;DHT22;20194;50.950;5.346;2024-02-26T04:27:23;6.90;99.90
33903;DHT22;20194;50.950;5.346;2024-02-26T04:29:49;6.90;99.90
33903;DHT22;20194;50.950;5.346;2024-02-26T04:32:14;6.90;99.90
33903;DHT22;20194;50.950;5.346;2024-02-26T04:34:41;6.80;99.90
33903;DHT22;20194;50.950;5.346;2024-02-26T04:37:07;6.80;99.90
33903;DHT22;20194;50.950;5.346;2024-02-26T04:39:33;6.80;99.90
33903;DHT22;20194;50.950;5.346;2024-02-26T04:41:59;6.80;99.90
33903;DHT22;20194;50.950;5.346;2024-02-26T04:44:24;6.90;99.90
33903;DHT22;20194;50.950;5.346;2024-02-26T04:46:50;6.80;99.90
33903;DHT22;20194;50.950;5.346;2024-02-26T04:49:16;6.80;99.90
33903;DHT22;20194;50.950;5.346;2024-02-26T04:51:42;6.90;99.90
33903;DHT22;20194;50.950;5.346;2024-02-26T04:54:07;6.90;99.90
33903;DHT22;20194;50.950;5.346;2024-02-26T04:56:33;6.90;99.90
33903;DHT22;20194;50.950;5.346;2024-02-26T04:58:58;6.90;99.90
33903;DHT22;20194;50.950;5.346;2024-02-26T05:01:25;6.90;99.90
33903;DHT22;20194;50.950;5.346;2024-02-26T05:03:51;6.90;99.90
33903;DHT22;20194;50.950;5.346;2024-02-26T05:06:16;6.90;99.90
33903;DHT22;20194;50.950;5.346;2024-02-26T05:08:42;6.90;99.90
33903;DHT22;20194;50.950;5.346;2024-02-26T05:11:09;6.90;99.90
33903;DHT22;20194;50.950;5.346;2024-02-26T05:13:35;6.90;99.90
33903;DHT22;20194;50.950;5.346;2024-02-26T05:16:01;6.90;99.90
33903;DHT22;20194;50.950;5.346;2024-02-26T05:18:27;6.90;99.90
33903;DHT22;20194;50.950;5.346;2024-02-26T05:20:53;6.90;99.90
33903;DHT22;20194;50.950;5.346;2024-02-26T05:23:18;6.90;99.90
33903;DHT22;20194;50.950;5.346;2024-02-26T05:25:44;6.90;99.90
33903;DHT22;20194;50.950;5.346;2024-02-26T05:28:12;6.90;99.90
33903;DHT22;20194;50.950;5.346;2024-02-26T05:30:38;6.90;99.90
33903;DHT22;20194;50.950;5.346;2024-02-26T05:33:05;6.90;99.90
33903;DHT22;20194;50.950;5.346;2024-02-26T05:35:31;6.90;99.90
33903;DHT22;20194;50.950;5.346;2024-02-26T05:37:56;6.80;99.90
33903;DHT22;20194;50.950;5.346;2024-02-26T05:40:22;6.70;99.90
33903;DHT22;20194;50.950;5.346;2024-02-26T05:42:48;6.80;99.90
33903;DHT22;20194;50.950;5.346;2024-02-26T05:45:14;6.80;99.90
33903;DHT22;20194;50.950;5.346;2024-02-26T05:47:40;6.90;99.90
33903;DHT22;20194;50.950;5.346;2024-02-26T05:50:11;6.90;99.90
33903;DHT22;20194;50.950;5.346;2024-02-26T05:52:38;6.80;99.90
33903;DHT22;20194;50.950;5.346;2024-02-26T05:55:08;6.80;99.90
33903;DHT22;20194;50.950;5.346;2024-02-26T05:57:34;6.80;99.90
33903;DHT22;20194;50.950;5.346;2024-02-26T06:00:00;6.80;99.90
33903;DHT22;20194;50.950;5.346;2024-02-26T06:02:32;6.80;99.90
33903;DHT22;20194;50.950;5.346;2024-02-26T06:04:58;6.70;99.90
33903;DHT22;20194;50.950;5.346;2024-02-26T06:07:24;6.70;99.90
33903;DHT22;20194;50.950;5.346;2024-02-26T06:09:50;6.80;99.90
33903;DHT22;20194;50.950;5.346;2024-02-26T06:12:16;6.80;99.90
33903;DHT22;20194;50.950;5.346;2024-02-26T06:14:42;6.80;99.90
33903;DHT22;20194;50.950;5.346;2024-02-26T06:17:08;6.80;99.90
33903;DHT22;20194;50.950;5.346;2024-02-26T06:19:34;6.70;99.90
33903;DHT22;20194;50.950;5.346;2024-02-26T06:22:00;6.70;99.90
33903;DHT22;20194;50.950;5.346;2024-02-26T06:24:26;6.70;99.90
33903;DHT22;20194;50.950;5.346;2024-02-26T06:26:52;6.70;99.90
33903;DHT22;20194;50.950;5.346;2024-02-26T06:29:17;6.70;99.90
33903;DHT22;20194;50.950;5.346;2024-02-26T06:31:46;6.70;99.90
33903;DHT22;20194;50.950;5.346;2024-02-26T06:34:13;6.70;99.90
33903;DHT22;20194;50.950;5.346;2024-02-26T06:36:39;6.70;99.90
33903;DHT22;20194;50.950;5.346;2024-02-26T06:39:05;6.70;99.90
33903;DHT22;20194;50.950;5.346;2024-02-26T06:41:31;6.60;99.90
33903;DHT22;20194;50.950;5.346;2024-02-26T06:43:56;6.60;99.90
33903;DHT22;20194;50.950;5.346;2024-02-26T06:46:22;6.60;99.90
33903;DHT22;20194;50.950;5.346;2024-02-26T06:48:49;6.60;99.90
33903;DHT22;20194;50.950;5.346;2024-02-26T06:51:15;6.70;99.90
33903;DHT22;20194;50.950;5.346;2024-02-26T06:53:40;6.70;99.90
33903;DHT22;20194;50.950;5.346;2024-02-26T06:56:06;6.70;99.90
33903;DHT22;20194;50.950;5.346;2024-02-26T06:58:32;6.70;99.90
33903;DHT22;20194;50.950;5.346;2024-02-26T07:00:58;6.60;99.90
33903;DHT22;20194;50.950;5.346;2024-02-26T07:03:23;6.50;99.90
33903;DHT22;20194;50.950;5.346;2024-02-26T07:05:51;6.60;99.90
33903;DHT22;20194;50.950;5.346;2024-02-26T07:08:17;6.60;99.90
33903;DHT22;20194;50.950;5.346;2024-02-26T07:10:43;6.60;99.90
33903;DHT22;20194;50.950;5.346;2024-02-26T07:13:09;6.60;99.90
33903;DHT22;20194;50.950;5.346;2024-02-26T07:15:35;6.60;99.90
33903;DHT22;20194;50.950;5.346;2024-02-26T07:18:01;6.60;99.90
33903;DHT22;20194;50.950;5.346;2024-02-26T07:20:29;6.50;99.90
33903;DHT22;20194;50.950;5.346;2024-02-26T07:22:56;6.60;99.90
33903;DHT22;20194;50.950;5.346;2024-02-26T07:25:22;6.60;99.90
33903;DHT22;20194;50.950;5.346;2024-02-26T07:27:47;6.60;99.90
33903;DHT22;20194;50.950;5.346;2024-02-26T07:30:13;6.60;99.90
33903;DHT22;20194;50.950;5.346;2024-02-26T07:32:39;6.60;99.90
33903;DHT22;20194;50.950;5.346;2024-02-26T07:35:05;6.60;99.90
33903;DHT22;20194;50.950;5.346;2024-02-26T07:37:30;6.70;99.90
33903;DHT22;20194;50.950;5.346;2024-02-26T07:39:56;6.70;99.90
33903;DHT22;20194;50.950;5.346;2024-02-26T07:42:23;6.70;99.90
33903;DHT22;20194;50.950;5.346;2024-02-26T07:44:48;6.60;99.90
33903;DHT22;20194;50.950;5.346;2024-02-26T07:47:14;6.60;99.90
33903;DHT22;20194;50.950;5.346;2024-02-26T07:49:40;6.70;99.90
33903;DHT22;20194;50.950;5.346;2024-02-26T07:52:06;6.70;99.90
33903;DHT22;20194;50.950;5.346;2024-02-26T07:54:32;6.80;99.90
33903;DHT22;20194;50.950;5.346;2024-02-26T07:56:58;6.80;99.90
33903;DHT22;20194;50.950;5.346;2024-02-26T07:59:23;6.70;99.90
33903;DHT22;20194;50.950;5.346;2024-02-26T08:01:52;6.80;99.90
33903;DHT22;20194;50.950;5.346;2024-02-26T08:04:18;6.80;99.90
33903;DHT22;20194;50.950;5.346;2024-02-26T08:06:43;6.70;99.90
33903;DHT22;20194;50.950;5.346;2024-02-26T08:09:09;6.70;99.90
33903;DHT22;20194;50.950;5.346;2024-02-26T08:11:35;6.70;99.90
33903;DHT22;20194;50.950;5.346;2024-02-26T08:14:01;6.60;99.90
33903;DHT22;20194;50.950;5.346;2024-02-26T08:16:27;6.60;99.90
33903;DHT22;20194;50.950;5.346;2024-02-26T08:18:52;6.70;99.90
33903;DHT22;20194;50.950;5.346;2024-02-26T08:21:19;6.70;99.90
33903;DHT22;20194;50.950;5.346;2024-02-26T08:23:44;6.70;99.90
33903;DHT22;20194;50.950;5.346;2024-02-26T08:26:10;6.70;99.90
33903;DHT22;20194;50.950;5.346;2024-02-26T08:28:40;6.70;99.90
33903;DHT22;20194;50.950;5.346;2024-02-26T08:31:05;6.70;99.90
33903;DHT22;20194;50.950;5.346;2024-02-26T08:33:33;6.70;99.90
33903;DHT22;20194;50.950;5.346;2024-02-26T08:36:04;6.80;99.90
33903;DHT22;20194;50.950;5.346;2024-02-26T08:38:30;6.70;99.90
33903;DHT22;20194;50.950;5.346;2024-02-26T08:40:56;6.80;99.90
33903;DHT22;20194;50.950;5.346;2024-02-26T08:43:21;6.70;99.90
33903;DHT22;20194;50.950;5.346;2024-02-26T08:45:47;6.70;99.90
33903;DHT22;20194;50.950;5.346;2024-02-26T08:48:13;6.70;99.90
33903;DHT22;20194;50.950;5.346;2024-02-26T08:50:38;6.70;99.90
33903;DHT22;20194;50.950;5.346;2024-02-26T08:53:04;6.70;99.90
33903;DHT22;20194;50.950;5.346;2024-02-26T08:55:31;6.60;99.90
33903;DHT22;20194;50.950;5.346;2024-02-26T08:57:56;6.70;99.90
33903;DHT22;20194;50.950;5.346;2024-02-26T09:00:22;6.70;99.90
33903;DHT22;20194;50.950;5.346;2024-02-26T09:02:48;6.60;99.90
33903;DHT22;20194;50.950;5.346;2024-02-26T09:05:14;6.60;99.90
33903;DHT22;20194;50.950;5.346;2024-02-26T09:07:40;6.70;99.90
33903;DHT22;20194;50.950;5.346;2024-02-26T09:10:06;6.70;99.90
33903;DHT22;20194;50.950;5.346;2024-02-26T09:12:34;6.60;99.90
33903;DHT22;20194;50.950;5.346;2024-02-26T09:15:00;6.70;99.90
33903;DHT22;20194;50.950;5.346;2024-02-26T09:17:26;6.70;99.90
33903;DHT22;20194;50.950;5.346;2024-02-26T09:19:52;6.80;99.90
33903;DHT22;20194;50.950;5.346;2024-02-26T09:22:17;6.70;99.90
33903;DHT22;20194;50.950;5.346;2024-02-26T09:24:43;6.80;99.90
33903;DHT22;20194;50.950;5.346;2024-02-26T09:27:09;6.80;99.90
33903;DHT22;20194;50.950;5.346;2024-02-26T09:29:35;6.90;99.90
33903;DHT22;20194;50.950;5.346;2024-02-26T09:32:01;6.90;99.90
33903;DHT22;20194;50.950;5.346;2024-02-26T09:34:28;6.80;99.90
33903;DHT22;20194;50.950;5.346;2024-02-26T09:36:54;6.80;99.90
33903;DHT22;20194;50.950;5.346;2024-02-26T09:39:19;6.70;99.90
33903;DHT22;20194;50.950;5.346;2024-02-26T09:41:48;6.80;99.90
33903;DHT22;20194;50.950;5.346;2024-02-26T09:44:19;6.70;99.90
33903;DHT22;20194;50.950;5.346;2024-02-26T09:46:48;6.80;99.90
33903;DHT22;20194;50.950;5.346;2024-02-26T09:49:17;6.90;99.90
33903;DHT22;20194;50.950;5.346;2024-02-26T09:51:43;6.80;99.90
33903;DHT22;20194;50.950;5.346;2024-02-26T09:54:10;6.90;99.90
33903;DHT22;20194;50.950;5.346;2024-02-26T09:56:39;6.90;99.90
33903;DHT22;20194;50.950;5.346;2024-02-26T09:59:17;6.90;99.90
33903;DHT22;20194;50.950;5.346;2024-02-26T10:01:44;6.80;99.90
33903;DHT22;20194;50.950;5.346;2024-02-26T10:04:11;6.90;99.90
33903;DHT22;20194;50.950;5.346;2024-02-26T10:06:37;6.90;99.90
33903;DHT22;20194;50.950;5.346;2024-02-26T10:09:03;7.00;99.90
33903;DHT22;20194;50.950;5.346;2024-02-26T10:11:33;7.00;99.90
33903;DHT22;20194;50.950;5.346;2024-02-26T10:13:59;7.10;99.90
33903;DHT22;20194;50.950;5.346;2024-02-26T10:16:25;7.10;99.90
33903;DHT22;20194;50.950;5.346;2024-02-26T10:18:52;7.10;99.90
33903;DHT22;20194;50.950;5.346;2024-02-26T10:21:22;7.00;99.90
33903;DHT22;20194;50.950;5.346;2024-02-26T10:23:49;6.80;99.90
33903;DHT22;20194;50.950;5.346;2024-02-26T10:26:16;7.00;99.90
33903;DHT22;20194;50.950;5.346;2024-02-26T10:28:42;6.90;99.90
33903;DHT22;20194;50.950;5.346;2024-02-26T10:31:10;6.90;99.90
33903;DHT22;20194;50.950;5.346;2024-02-26T10:33:37;6.90;99.90
33903;DHT22;20194;50.950;5.346;2024-02-26T10:36:04;7.00;99.90
33903;DHT22;20194;50.950;5.346;2024-02-26T10:38:31;6.90;99.90
33903;DHT22;20194;50.950;5.346;2024-02-26T10:40:57;7.00;99.90
33903;DHT22;20194;50.950;5.346;2024-02-26T10:43:24;7.00;99.90
33903;DHT22;20194;50.950;5.346;2024-02-26T10:45:50;7.00;99.90
33903;DHT22;20194;50.950;5.346;2024-02-26T10:48:16;6.90;99.90
33903;DHT22;20194;50.950;5.346;2024-02-26T10:50:43;6.90;99.90
33903;DHT22;20194;50.950;5.346;2024-02-26T10:53:20;7.00;99.90
33903;DHT22;20194;50.950;5.346;2024-02-26T10:55:55;6.90;99.90
33903;DHT22;20194;50.950;5.346;2024-02-26T10:58:22;6.90;99.90
33903;DHT22;20194;50.950;5.346;2024-02-26T11:00:51;6.90;99.90
33903;DHT22;20194;50.950;5.346;2024-02-26T11:03:18;6.90;99.90
33903;DHT22;20194;50.950;5.346;2024-02-26T11:05:49;6.90;99.90
33903;DHT22;20194;50.950;5.346;2024-02-26T11:08:17;6.90;99.90
33903;DHT22;20194;50.950;5.346;2024-02-26T11:10:43;6.80;99.90
33903;DHT22;20194;50.950;5.346;2024-02-26T11:13:14;6.90;99.90
33903;DHT22;20194;50.950;5.346;2024-02-26T11:15:40;6.90;99.90
33903;DHT22;20194;50.950;5.346;2024-02-26T11:18:07;6.90;99.90
33903;DHT22;20194;50.950;5.346;2024-02-26T11:20:33;6.90;99.90
33903;DHT22;20194;50.950;5.346;2024-02-26T11:23:00;7.00;99.90
33903;DHT22;20194;50.950;5.346;2024-02-26T11:25:25;7.00;99.90
33903;DHT22;20194;50.950;5.346;2024-02-26T11:27:56;7.00;99.90
33903;DHT22;20194;50.950;5.346;2024-02-26T11:30:25;7.00;99.90
33903;DHT22;20194;50.950;5.346;2024-02-26T11:32:52;7.00;99.90
33903;DHT22;20194;50.950;5.346;2024-02-26T11:35:19;7.00;99.90
33903;DHT22;20194;50.950;5.346;2024-02-26T11:37:55;6.90;99.90
33903;DHT22;20194;50.950;5.346;2024-02-26T11:40:25;6.90;99.90
33903;DHT22;20194;50.950;5.346;2024-02-26T11:42:54;6.80;99.90
33903;DHT22;20194;50.950;5.346;2024-02-26T11:48:05;6.70;99.90
33903;DHT22;20194;50.950;5.346;2024-02-26T11:50:40;6.80;99.90
33903;DHT22;20194;50.950;5.346;2024-02-26T11:53:30;6.80;99.90
33903;DHT22;20194;50.950;5.346;2024-02-26T11:59:09;6.90;99.90
33903;DHT22;20194;50.950;5.346;2024-02-26T12:06:50;7.00;99.90
33903;DHT22;20194;50.950;5.346;2024-02-26T12:09:40;6.90;99.90
33903;DHT22;20194;50.950;5.346;2024-02-26T12:12:11;7.00;99.90
33903;DHT22;20194;50.950;5.346;2024-02-26T12:14:40;7.00;99.90
33903;DHT22;20194;50.950;5.346;2024-02-26T12:17:07;6.90;99.90
33903;DHT22;20194;50.950;5.346;2024-02-26T12:19:35;6.90;99.90
33903;DHT22;20194;50.950;5.346;2024-02-26T12:22:02;6.90;99.90
33903;DHT22;20194;50.950;5.346;2024-02-26T12:24:29;7.00;99.90
33903;DHT22;20194;50.950;5.346;2024-02-26T12:26:54;7.10;99.90
33903;DHT22;20194;50.950;5.346;2024-02-26T12:29:20;7.10;99.90
33903;DHT22;20194;50.950;5.346;2024-02-26T12:31:47;7.10;99.90
33903;DHT22;20194;50.950;5.346;2024-02-26T12:34:13;7.10;99.90
33903;DHT22;20194;50.950;5.346;2024-02-26T12:36:39;7.10;99.90
33903;DHT22;20194;50.950;5.346;2024-02-26T12:39:05;7.10;99.90
33903;DHT22;20194;50.950;5.346;2024-02-26T12:41:32;7.10;99.90
33903;DHT22;20194;50.950;5.346;2024-02-26T12:43:59;7.10;99.90
33903;DHT22;20194;50.950;5.346;2024-02-26T12:46:25;7.20;99.90
33903;DHT22;20194;50.950;5.346;2024-02-26T12:48:50;7.20;99.90
33903;DHT22;20194;50.950;5.346;2024-02-26T12:51:17;7.20;99.90
33903;DHT22;20194;50.950;5.346;2024-02-26T12:53:44;7.20;99.90
33903;DHT22;20194;50.950;5.346;2024-02-26T12:56:11;7.30;99.90
33903;DHT22;20194;50.950;5.346;2024-02-26T12:58:40;7.20;99.90
33903;DHT22;20194;50.950;5.346;2024-02-26T13:01:07;7.20;99.90
33903;DHT22;20194;50.950;5.346;2024-02-26T13:03:39;7.30;99.90
33903;DHT22;20194;50.950;5.346;2024-02-26T13:06:05;7.30;99.90
33903;DHT22;20194;50.950;5.346;2024-02-26T13:08:32;7.20;99.90
33903;DHT22;20194;50.950;5.346;2024-02-26T13:10:59;7.30;99.90
33903;DHT22;20194;50.950;5.346;2024-02-26T13:13:26;7.40;99.90
33903;DHT22;20194;50.950;5.346;2024-02-26T13:16:13;7.40;99.90
33903;DHT22;20194;50.950;5.346;2024-02-26T13:18:39;7.40;99.90
33903;DHT22;20194;50.950;5.346;2024-02-26T13:21:09;7.30;99.90
33903;DHT22;20194;50.950;5.346;2024-02-26T13:23:36;7.30;99.90
33903;DHT22;20194;50.950;5.346;2024-02-26T13:26:02;7.20;99.90
33903;DHT22;20194;50.950;5.346;2024-02-26T13:28:28;7.20;99.90
33903;DHT22;20194;50.950;5.346;2024-02-26T13:30:54;7.20;99.90
33903;DHT22;20194;50.950;5.346;2024-02-26T13:33:24;7.30;99.90
33903;DHT22;20194;50.950;5.346;2024-02-26T13:35:50;7.30;99.90
33903;DHT22;20194;50.950;5.346;2024-02-26T13:38:16;7.40;99.90
33903;DHT22;20194;50.950;5.346;2024-02-26T13:40:43;7.40;99.90
33903;DHT22;20194;50.950;5.346;2024-02-26T13:43:09;7.40;99.90
33903;DHT22;20194;50.950;5.346;2024-02-26T13:45:36;7.30;99.90
33903;DHT22;20194;50.950;5.346;2024-02-26T13:48:04;7.30;99.90
33903;DHT22;20194;50.950;5.346;2024-02-26T13:50:30;7.20;99.90
33903;DHT22;20194;50.950;5.346;2024-02-26T13:52:56;7.20;99.90
33903;DHT22;20194;50.950;5.346;2024-02-26T13:55:23;7.30;99.90
33903;DHT22;20194;50.950;5.346;2024-02-26T13:57:52;7.30;99.90
33903;DHT22;20194;50.950;5.346;2024-02-26T14:00:19;7.30;99.90
33903;DHT22;20194;50.950;5.346;2024-02-26T14:02:45;7.20;99.90
33903;DHT22;20194;50.950;5.346;2024-02-26T14:05:11;7.30;99.90
33903;DHT22;20194;50.950;5.346;2024-02-26T14:07:37;7.30;99.90
33903;DHT22;20194;50.950;5.346;2024-02-26T14:10:03;7.30;99.90
33903;DHT22;20194;50.950;5.346;2024-02-26T14:12:29;7.20;99.90
33903;DHT22;20194;50.950;5.346;2024-02-26T14:14:54;7.30;99.90
33903;DHT22;20194;50.950;5.346;2024-02-26T14:17:21;7.30;99.90
33903;DHT22;20194;50.950;5.346;2024-02-26T14:19:48;7.30;99.90
33903;DHT22;20194;50.950;5.346;2024-02-26T14:22:14;7.20;99.90
33903;DHT22;20194;50.950;5.346;2024-02-26T14:24:42;7.10;99.90
33903;DHT22;20194;50.950;5.346;2024-02-26T14:27:10;7.20;99.90
33903;DHT22;20194;50.950;5.346;2024-02-26T14:29:36;7.20;99.90
33903;DHT22;20194;50.950;5.346;2024-02-26T14:32:03;7.20;99.90
33903;DHT22;20194;50.950;5.346;2024-02-26T14:34:30;7.20;99.90
33903;DHT22;20194;50.950;5.346;2024-02-26T14:36:56;7.30;99.90
33903;DHT22;20194;50.950;5.346;2024-02-26T14:39:22;7.30;99.90
33903;DHT22;20194;50.950;5.346;2024-02-26T14:41:47;7.20;99.90
33903;DHT22;20194;50.950;5.346;2024-02-26T14:44:13;7.20;99.90
33903;DHT22;20194;50.950;5.346;2024-02-26T14:46:39;7.30;99.90
33903;DHT22;20194;50.950;5.346;2024-02-26T14:49:04;7.30;99.90
33903;DHT22;20194;50.950;5.346;2024-02-26T14:51:30;7.30;99.90
33903;DHT22;20194;50.950;5.346;2024-02-26T14:53:56;7.30;99.90
33903;DHT22;20194;50.950;5.346;2024-02-26T14:56:24;7.30;99.90
33903;DHT22;20194;50.950;5.346;2024-02-26T14:58:50;7.30;99.90
33903;DHT22;20194;50.950;5.346;2024-02-26T15:01:16;7.40;99.90
33903;DHT22;20194;50.950;5.346;2024-02-26T15:03:41;7.40;99.90
33903;DHT22;20194;50.950;5.346;2024-02-26T15:06:07;7.40;99.90
33903;DHT22;20194;50.950;5.346;2024-02-26T15:08:33;7.40;99.90
33903;DHT22;20194;50.950;5.346;2024-02-26T15:11:00;7.40;99.90
33903;DHT22;20194;50.950;5.346;2024-02-26T15:13:27;7.30;99.90
33903;DHT22;20194;50.950;5.346;2024-02-26T15:15:52;7.30;99.90
33903;DHT22;20194;50.950;5.346;2024-02-26T15:18:18;7.30;99.90
33903;DHT22;20194;50.950;5.346;2024-02-26T15:20:44;7.30;99.90
33903;DHT22;20194;50.950;5.346;2024-02-26T15:23:11;7.30;99.90
33903;DHT22;20194;50.950;5.346;2024-02-26T15:25:37;7.30;99.90
33903;DHT22;20194;50.950;5.346;2024-02-26T15:28:03;7.30;99.90
33903;DHT22;20194;50.950;5.346;2024-02-26T15:30:29;7.30;99.90
33903;DHT22;20194;50.950;5.346;2024-02-26T15:32:56;7.40;99.90
33903;DHT22;20194;50.950;5.346;2024-02-26T15:35:22;7.40;99.90
33903;DHT22;20194;50.950;5.346;2024-02-26T15:37:47;7.40;99.90
33903;DHT22;20194;50.950;5.346;2024-02-26T15:40:13;7.40;99.90
33903;DHT22;20194;50.950;5.346;2024-02-26T15:42:39;7.40;99.90
33903;DHT22;20194;50.950;5.346;2024-02-26T15:45:05;7.40;99.90
33903;DHT22;20194;50.950;5.346;2024-02-26T15:47:32;7.40;99.90
33903;DHT22;20194;50.950;5.346;2024-02-26T15:49:57;7.40;99.90
33903;DHT22;20194;50.950;5.346;2024-02-26T15:52:24;7.40;99.90